sensor_id;sensor_type;location;lat;lon;timestamp;temperature;humidity
19809;DHT22;48538;32.784;-96.802;2023-11-19T00:01:56;18.80;99.90
19809;DHT22;48538;32.784;-96.802;2023-11-19T00:04:23;18.70;99.90
19809;DHT22;48538;32.784;-96.802;2023-11-19T00:06:49;18.70;99.90
19809;DHT22;48538;32.784;-96.802;2023-11-19T00:09:15;18.70;99.90
19809;DHT22;48538;32.784;-96.802;2023-11-19T00:11:43;18.70;99.90
19809;DHT22;48538;32.784;-96.802;2023-11-19T00:14:10;18.70;99.90
19809;DHT22;48538;32.784;-96.802;2023-11-19T00:16:36;18.70;99.90
19809;DHT22;48538;32.784;-96.802;2023-11-19T00:19:03;18.60;99.90
19809;DHT22;48538;32.784;-96.802;2023-11-19T00:21:30;18.60;99.90
19809;DHT22;48538;32.784;-96.802;2023-11-19T00:23:56;18.60;99.90
19809;DHT22;48538;32.784;-96.802;2023-11-19T00:26:24;18.60;99.90
19809;DHT22;48538;32.784;-96.802;2023-11-19T00:28:50;18.60;99.90
19809;DHT22;48538;32.784;-96.802;2023-11-19T00:31:18;18.60;99.90
19809;DHT22;48538;32.784;-96.802;2023-11-19T00:33:44;18.50;99.90
19809;DHT22;48538;32.784;-96.802;2023-11-19T00:36:11;18.50;99.90
19809;DHT22;48538;32.784;-96.802;2023-11-19T00:38:38;18.50;99.90
19809;DHT22;48538;32.784;-96.802;2023-11-19T00:41:05;18.50;99.90
19809;DHT22;48538;32.784;-96.802;2023-11-19T00:43:32;18.50;99.90
19809;DHT22;48538;32.784;-96.802;2023-11-19T00:45:58;18.50;99.90
19809;DHT22;48538;32.784;-96.802;2023-11-19T00:48:24;18.40;99.90
19809;DHT22;48538;32.784;-96.802;2023-11-19T00:50:51;18.40;99.90
19809;DHT22;48538;32.784;-96.802;2023-11-19T00:53:17;18.40;99.90
19809;DHT22;48538;32.784;-96.802;2023-11-19T00:55:43;18.40;99.90
19809;DHT22;48538;32.784;-96.802;2023-11-19T00:58:10;18.40;99.90
19809;DHT22;48538;32.784;-96.802;2023-11-19T01:00:36;18.40;99.90
19809;DHT22;48538;32.784;-96.802;2023-11-19T01:03:02;18.40;99.90
19809;DHT22;48538;32.784;-96.802;2023-11-19T01:05:29;18.40;99.90
19809;DHT22;48538;32.784;-96.802;2023-11-19T01:07:55;18.40;99.90
19809;DHT22;48538;32.784;-96.802;2023-11-19T01:10:21;18.30;99.90
19809;DHT22;48538;32.784;-96.802;2023-11-19T01:12:47;18.40;99.90
19809;DHT22;48538;32.784;-96.802;2023-11-19T01:15:14;18.40;99.90
19809;DHT22;48538;32.784;-96.802;2023-11-19T01:17:40;18.40;99.90
19809;DHT22;48538;32.784;-96.802;2023-11-19T01:20:06;18.40;99.90
19809;DHT22;48538;32.784;-96.802;2023-11-19T01:22:33;18.40;99.90
19809;DHT22;48538;32.784;-96.802;2023-11-19T01:24:59;18.40;99.90
19809;DHT22;48538;32.784;-96.802;2023-11-19T01:27:25;18.40;99.90
19809;DHT22;48538;32.784;-96.802;2023-11-19T01:29:52;18.40;99.90
19809;DHT22;48538;32.784;-96.802;2023-11-19T01:32:18;18.30;99.90
19809;DHT22;48538;32.784;-96.802;2023-11-19T01:34:44;18.30;99.90
19809;DHT22;48538;32.784;-96.802;2023-11-19T01:37:11;18.30;99.90
19809;DHT22;48538;32.784;-96.802;2023-11-19T01:39:38;18.30;99.90
19809;DHT22;48538;32.784;-96.802;2023-11-19T01:42:05;18.30;99.90
19809;DHT22;48538;32.784;-96.802;2023-11-19T01:44:31;18.30;99.90
19809;DHT22;48538;32.784;-96.802;2023-11-19T01:46:58;18.30;99.90
19809;DHT22;48538;32.784;-96.802;2023-11-19T01:49:25;18.30;99.90
19809;DHT22;48538;32.784;-96.802;2023-11-19T01:51:51;18.30;99.90
19809;DHT22;48538;32.784;-96.802;2023-11-19T01:54:17;18.30;99.90
19809;DHT22;48538;32.784;-96.802;2023-11-19T01:56:44;18.30;99.90
19809;DHT22;48538;32.784;-96.802;2023-11-19T01:59:11;18.30;99.90
19809;DHT22;48538;32.784;-96.802;2023-11-19T02:01:40;18.30;99.90
19809;DHT22;48538;32.784;-96.802;2023-11-19T02:04:07;18.30;99.90
19809;DHT22;48538;32.784;-96.802;2023-11-19T02:06:36;18.30;99.90
19809;DHT22;48538;32.784;-96.802;2023-11-19T02:09:03;18.30;99.90
19809;DHT22;48538;32.784;-96.802;2023-11-19T02:11:34;18.30;99.90
19809;DHT22;48538;32.784;-96.802;2023-11-19T02:14:01;18.30;99.90
19809;DHT22;48538;32.784;-96.802;2023-11-19T02:16:28;18.20;99.90
19809;DHT22;48538;32.784;-96.802;2023-11-19T02:18:54;18.30;99.90
19809;DHT22;48538;32.784;-96.802;2023-11-19T02:21:21;18.20;99.90
19809;DHT22;48538;32.784;-96.802;2023-11-19T02:23:48;18.20;99.90
19809;DHT22;48538;32.784;-96.802;2023-11-19T02:26:32;18.20;99.90
19809;DHT22;48538;32.784;-96.802;2023-11-19T02:29:02;18.30;99.90
19809;DHT22;48538;32.784;-96.802;2023-11-19T02:31:28;18.30;99.90
19809;DHT22;48538;32.784;-96.802;2023-11-19T02:33:55;18.30;99.90
19809;DHT22;48538;32.784;-96.802;2023-11-19T02:36:21;18.30;99.90
19809;DHT22;48538;32.784;-96.802;2023-11-19T02:38:47;18.30;99.90
19809;DHT22;48538;32.784;-96.802;2023-11-19T02:41:14;18.30;99.90
19809;DHT22;48538;32.784;-96.802;2023-11-19T02:43:40;18.30;99.90
19809;DHT22;48538;32.784;-96.802;2023-11-19T02:46:06;18.20;99.90
19809;DHT22;48538;32.784;-96.802;2023-11-19T02:48:34;18.20;99.90
19809;DHT22;48538;32.784;-96.802;2023-11-19T02:51:04;18.20;99.90
19809;DHT22;48538;32.784;-96.802;2023-11-19T02:53:31;18.20;99.90
19809;DHT22;48538;32.784;-96.802;2023-11-19T02:55:57;18.20;99.90
19809;DHT22;48538;32.784;-96.802;2023-11-19T02:58:44;18.20;99.90
19809;DHT22;48538;32.784;-96.802;2023-11-19T03:01:10;18.20;99.90
19809;DHT22;48538;32.784;-96.802;2023-11-19T03:03:49;18.20;99.90
19809;DHT22;48538;32.784;-96.802;2023-11-19T03:06:20;18.20;99.90
19809;DHT22;48538;32.784;-96.802;2023-11-19T03:08:49;18.20;99.90
19809;DHT22;48538;32.784;-96.802;2023-11-19T03:11:16;18.20;99.90
19809;DHT22;48538;32.784;-96.802;2023-11-19T03:13:42;18.20;99.90
19809;DHT22;48538;32.784;-96.802;2023-11-19T03:16:08;18.20;99.90
19809;DHT22;48538;32.784;-96.802;2023-11-19T03:18:35;18.20;99.90
19809;DHT22;48538;32.784;-96.802;2023-11-19T03:21:01;18.20;99.90
19809;DHT22;48538;32.784;-96.802;2023-11-19T03:23:28;18.10;99.90
19809;DHT22;48538;32.784;-96.802;2023-11-19T03:25:55;18.10;99.90
19809;DHT22;48538;32.784;-96.802;2023-11-19T03:28:22;18.20;99.90
19809;DHT22;48538;32.784;-96.802;2023-11-19T03:30:49;18.10;99.90
19809;DHT22;48538;32.784;-96.802;2023-11-19T03:33:15;18.20;99.90
19809;DHT22;48538;32.784;-96.802;2023-11-19T03:35:41;18.20;99.90
19809;DHT22;48538;32.784;-96.802;2023-11-19T03:38:07;18.20;99.90
19809;DHT22;48538;32.784;-96.802;2023-11-19T03:40:34;18.10;99.90
19809;DHT22;48538;32.784;-96.802;2023-11-19T03:43:00;18.20;99.90
19809;DHT22;48538;32.784;-96.802;2023-11-19T03:45:26;18.10;99.90
19809;DHT22;48538;32.784;-96.802;2023-11-19T03:47:52;18.10;99.90
19809;DHT22;48538;32.784;-96.802;2023-11-19T03:50:19;18.10;99.90
19809;DHT22;48538;32.784;-96.802;2023-11-19T03:52:49;18.10;99.90
19809;DHT22;48538;32.784;-96.802;2023-11-19T03:55:16;18.10;99.90
19809;DHT22;48538;32.784;-96.802;2023-11-19T03:57:42;18.10;99.90
19809;DHT22;48538;32.784;-96.802;2023-11-19T04:00:09;18.10;99.90
19809;DHT22;48538;32.784;-96.802;2023-11-19T04:02:39;18.10;99.90
19809;DHT22;48538;32.784;-96.802;2023-11-19T04:05:06;18.00;99.90
19809;DHT22;48538;32.784;-96.802;2023-11-19T04:07:35;18.00;99.90
19809;DHT22;48538;32.784;-96.802;2023-11-19T04:10:02;18.00;99.90
19809;DHT22;48538;32.784;-96.802;2023-11-19T04:12:29;18.00;99.90
19809;DHT22;48538;32.784;-96.802;2023-11-19T04:14:55;18.00;99.90
19809;DHT22;48538;32.784;-96.802;2023-11-19T04:17:22;18.00;99.90
19809;DHT22;48538;32.784;-96.802;2023-11-19T04:19:49;17.90;99.90
19809;DHT22;48538;32.784;-96.802;2023-11-19T04:22:15;18.00;99.90
19809;DHT22;48538;32.784;-96.802;2023-11-19T04:24:41;18.00;99.90
19809;DHT22;48538;32.784;-96.802;2023-11-19T04:27:09;18.00;99.90
19809;DHT22;48538;32.784;-96.802;2023-11-19T04:29:36;18.00;99.90
19809;DHT22;48538;32.784;-96.802;2023-11-19T04:32:02;18.00;99.90
19809;DHT22;48538;32.784;-96.802;2023-11-19T04:34:28;17.90;99.90
19809;DHT22;48538;32.784;-96.802;2023-11-19T04:36:54;17.90;99.90
19809;DHT22;48538;32.784;-96.802;2023-11-19T04:39:21;17.90;99.90
19809;DHT22;48538;32.784;-96.802;2023-11-19T04:41:49;17.90;99.90
19809;DHT22;48538;32.784;-96.802;2023-11-19T04:44:16;17.80;99.90
19809;DHT22;48538;32.784;-96.802;2023-11-19T04:46:43;17.90;99.90
19809;DHT22;48538;32.784;-96.802;2023-11-19T04:49:10;17.80;99.90
19809;DHT22;48538;32.784;-96.802;2023-11-19T04:51:45;17.80;99.90
19809;DHT22;48538;32.784;-96.802;2023-11-19T04:54:14;17.80;99.90
19809;DHT22;48538;32.784;-96.802;2023-11-19T04:56:41;17.70;99.90
19809;DHT22;48538;32.784;-96.802;2023-11-19T04:59:11;17.80;99.90
19809;DHT22;48538;32.784;-96.802;2023-11-19T05:01:37;17.70;99.90
19809;DHT22;48538;32.784;-96.802;2023-11-19T05:04:03;17.70;99.90
19809;DHT22;48538;32.784;-96.802;2023-11-19T05:06:30;17.60;99.90
19809;DHT22;48538;32.784;-96.802;2023-11-19T05:08:59;17.60;99.90
19809;DHT22;48538;32.784;-96.802;2023-11-19T05:11:34;17.60;99.90
19809;DHT22;48538;32.784;-96.802;2023-11-19T05:14:02;17.60;99.90
19809;DHT22;48538;32.784;-96.802;2023-11-19T05:16:29;17.60;99.90
19809;DHT22;48538;32.784;-96.802;2023-11-19T05:18:56;17.60;99.90
19809;DHT22;48538;32.784;-96.802;2023-11-19T05:21:22;17.60;99.90
19809;DHT22;48538;32.784;-96.802;2023-11-19T05:23:49;17.60;99.90
19809;DHT22;48538;32.784;-96.802;2023-11-19T05:26:23;17.60;99.90
19809;DHT22;48538;32.784;-96.802;2023-11-19T05:28:50;17.60;99.90
19809;DHT22;48538;32.784;-96.802;2023-11-19T05:31:17;17.60;99.90
19809;DHT22;48538;32.784;-96.802;2023-11-19T05:33:44;17.60;99.90
19809;DHT22;48538;32.784;-96.802;2023-11-19T05:36:11;17.50;99.90
19809;DHT22;48538;32.784;-96.802;2023-11-19T05:38:38;17.50;99.90
19809;DHT22;48538;32.784;-96.802;2023-11-19T05:41:05;17.50;99.90
19809;DHT22;48538;32.784;-96.802;2023-11-19T05:43:32;17.40;99.90
19809;DHT22;48538;32.784;-96.802;2023-11-19T05:45:58;17.40;99.90
19809;DHT22;48538;32.784;-96.802;2023-11-19T05:48:26;17.40;99.90
19809;DHT22;48538;32.784;-96.802;2023-11-19T05:50:53;17.40;99.90
19809;DHT22;48538;32.784;-96.802;2023-11-19T05:53:20;17.40;99.90
19809;DHT22;48538;32.784;-96.802;2023-11-19T05:55:47;17.40;99.90
19809;DHT22;48538;32.784;-96.802;2023-11-19T05:58:23;17.40;99.90
19809;DHT22;48538;32.784;-96.802;2023-11-19T06:00:49;17.40;99.90
19809;DHT22;48538;32.784;-96.802;2023-11-19T06:03:16;17.40;99.90
19809;DHT22;48538;32.784;-96.802;2023-11-19T06:05:47;17.40;99.90
19809;DHT22;48538;32.784;-96.802;2023-11-19T06:08:14;17.40;99.90
19809;DHT22;48538;32.784;-96.802;2023-11-19T06:10:41;17.40;99.90
19809;DHT22;48538;32.784;-96.802;2023-11-19T06:13:16;17.40;99.90
19809;DHT22;48538;32.784;-96.802;2023-11-19T06:15:43;17.50;99.90
19809;DHT22;48538;32.784;-96.802;2023-11-19T06:18:10;17.50;99.90
19809;DHT22;48538;32.784;-96.802;2023-11-19T06:20:38;17.50;99.90
19809;DHT22;48538;32.784;-96.802;2023-11-19T06:23:04;17.50;99.90
19809;DHT22;48538;32.784;-96.802;2023-11-19T06:25:31;17.50;99.90
19809;DHT22;48538;32.784;-96.802;2023-11-19T06:27:57;17.50;99.90
19809;DHT22;48538;32.784;-96.802;2023-11-19T06:30:23;17.50;99.90
19809;DHT22;48538;32.784;-96.802;2023-11-19T06:32:49;17.40;99.90
19809;DHT22;48538;32.784;-96.802;2023-11-19T06:35:16;17.30;99.90
19809;DHT22;48538;32.784;-96.802;2023-11-19T06:37:42;17.30;99.90
19809;DHT22;48538;32.784;-96.802;2023-11-19T06:40:09;17.30;99.90
19809;DHT22;48538;32.784;-96.802;2023-11-19T06:42:35;17.30;99.90
19809;DHT22;48538;32.784;-96.802;2023-11-19T06:45:02;17.30;99.90
19809;DHT22;48538;32.784;-96.802;2023-11-19T06:47:29;17.30;99.90
19809;DHT22;48538;32.784;-96.802;2023-11-19T06:49:56;17.30;99.90
19809;DHT22;48538;32.784;-96.802;2023-11-19T06:52:22;17.30;99.90
19809;DHT22;48538;32.784;-96.802;2023-11-19T06:54:48;17.30;99.90
19809;DHT22;48538;32.784;-96.802;2023-11-19T06:57:15;17.30;99.90
19809;DHT22;48538;32.784;-96.802;2023-11-19T06:59:41;17.30;99.90
19809;DHT22;48538;32.784;-96.802;2023-11-19T07:02:08;17.30;99.90
19809;DHT22;48538;32.784;-96.802;2023-11-19T07:04:34;17.30;99.90
19809;DHT22;48538;32.784;-96.802;2023-11-19T07:07:01;17.30;99.90
19809;DHT22;48538;32.784;-96.802;2023-11-19T07:09:27;17.30;99.90
19809;DHT22;48538;32.784;-96.802;2023-11-19T07:11:53;17.30;99.90
19809;DHT22;48538;32.784;-96.802;2023-11-19T07:14:20;17.30;99.90
19809;DHT22;48538;32.784;-96.802;2023-11-19T07:16:47;17.30;99.90
19809;DHT22;48538;32.784;-96.802;2023-11-19T07:19:13;17.30;99.90
19809;DHT22;48538;32.784;-96.802;2023-11-19T07:21:42;17.30;99.90
19809;DHT22;48538;32.784;-96.802;2023-11-19T07:24:10;17.30;99.90
19809;DHT22;48538;32.784;-96.802;2023-11-19T07:26:43;17.30;99.90
19809;DHT22;48538;32.784;-96.802;2023-11-19T07:29:09;17.30;99.90
19809;DHT22;48538;32.784;-96.802;2023-11-19T07:31:36;17.40;99.90
19809;DHT22;48538;32.784;-96.802;2023-11-19T07:34:02;17.40;99.90
19809;DHT22;48538;32.784;-96.802;2023-11-19T07:36:29;17.40;99.90
19809;DHT22;48538;32.784;-96.802;2023-11-19T07:38:57;17.40;99.90
19809;DHT22;48538;32.784;-96.802;2023-11-19T07:41:23;17.40;99.90
19809;DHT22;48538;32.784;-96.802;2023-11-19T07:43:51;17.40;99.90
19809;DHT22;48538;32.784;-96.802;2023-11-19T07:46:18;17.40;99.90
19809;DHT22;48538;32.784;-96.802;2023-11-19T07:48:47;17.50;99.90
19809;DHT22;48538;32.784;-96.802;2023-11-19T07:51:14;17.40;99.90
19809;DHT22;48538;32.784;-96.802;2023-11-19T07:53:41;17.40;99.90
19809;DHT22;48538;32.784;-96.802;2023-11-19T07:56:08;17.50;99.90
19809;DHT22;48538;32.784;-96.802;2023-11-19T07:58:34;17.40;99.90
19809;DHT22;48538;32.784;-96.802;2023-11-19T08:01:01;17.40;99.90
19809;DHT22;48538;32.784;-96.802;2023-11-19T08:03:30;17.40;99.90
19809;DHT22;48538;32.784;-96.802;2023-11-19T08:05:56;17.40;99.90
19809;DHT22;48538;32.784;-96.802;2023-11-19T08:08:23;17.40;99.90
19809;DHT22;48538;32.784;-96.802;2023-11-19T08:10:49;17.40;99.90
19809;DHT22;48538;32.784;-96.802;2023-11-19T08:13:18;17.50;99.90
19809;DHT22;48538;32.784;-96.802;2023-11-19T08:15:44;17.50;99.90
19809;DHT22;48538;32.784;-96.802;2023-11-19T08:18:12;17.50;99.90
19809;DHT22;48538;32.784;-96.802;2023-11-19T08:20:38;17.50;99.90
19809;DHT22;48538;32.784;-96.802;2023-11-19T08:23:04;17.50;99.90
19809;DHT22;48538;32.784;-96.802;2023-11-19T08:25:31;17.50;99.90
19809;DHT22;48538;32.784;-96.802;2023-11-19T08:27:59;17.50;99.90
19809;DHT22;48538;32.784;-96.802;2023-11-19T08:30:26;17.50;99.90
19809;DHT22;48538;32.784;-96.802;2023-11-19T08:32:52;17.50;99.90
19809;DHT22;48538;32.784;-96.802;2023-11-19T08:35:19;17.50;99.90
19809;DHT22;48538;32.784;-96.802;2023-11-19T08:37:45;17.50;99.90
19809;DHT22;48538;32.784;-96.802;2023-11-19T08:40:12;17.50;99.90
19809;DHT22;48538;32.784;-96.802;2023-11-19T08:42:40;17.50;99.90
19809;DHT22;48538;32.784;-96.802;2023-11-19T08:45:19;17.50;99.90
19809;DHT22;48538;32.784;-96.802;2023-11-19T08:47:45;17.40;99.90
19809;DHT22;48538;32.784;-96.802;2023-11-19T08:50:12;17.40;99.90
19809;DHT22;48538;32.784;-96.802;2023-11-19T08:52:38;17.40;99.90
19809;DHT22;48538;32.784;-96.802;2023-11-19T08:55:05;17.40;99.90
19809;DHT22;48538;32.784;-96.802;2023-11-19T08:57:31;17.40;99.90
19809;DHT22;48538;32.784;-96.802;2023-11-19T08:59:58;17.40;99.90
19809;DHT22;48538;32.784;-96.802;2023-11-19T09:02:28;17.50;99.90
19809;DHT22;48538;32.784;-96.802;2023-11-19T09:04:54;17.50;99.90
19809;DHT22;48538;32.784;-96.802;2023-11-19T09:07:21;17.50;99.90
19809;DHT22;48538;32.784;-96.802;2023-11-19T09:09:47;17.40;99.90
19809;DHT22;48538;32.784;-96.802;2023-11-19T09:12:13;17.30;99.90
19809;DHT22;48538;32.784;-96.802;2023-11-19T09:14:39;17.30;99.90
19809;DHT22;48538;32.784;-96.802;2023-11-19T09:17:07;17.30;99.90
19809;DHT22;48538;32.784;-96.802;2023-11-19T09:19:35;17.30;99.90
19809;DHT22;48538;32.784;-96.802;2023-11-19T09:22:01;17.20;99.90
19809;DHT22;48538;32.784;-96.802;2023-11-19T09:24:28;17.20;99.90
19809;DHT22;48538;32.784;-96.802;2023-11-19T09:26:54;17.20;99.90
19809;DHT22;48538;32.784;-96.802;2023-11-19T09:29:22;17.10;99.90
19809;DHT22;48538;32.784;-96.802;2023-11-19T09:31:48;17.10;99.90
19809;DHT22;48538;32.784;-96.802;2023-11-19T09:34:14;17.10;99.90
19809;DHT22;48538;32.784;-96.802;2023-11-19T09:36:40;17.00;99.90
19809;DHT22;48538;32.784;-96.802;2023-11-19T09:39:11;17.10;99.90
19809;DHT22;48538;32.784;-96.802;2023-11-19T09:41:38;17.10;99.90
19809;DHT22;48538;32.784;-96.802;2023-11-19T09:44:05;17.20;99.90
19809;DHT22;48538;32.784;-96.802;2023-11-19T09:46:31;17.20;99.90
19809;DHT22;48538;32.784;-96.802;2023-11-19T09:48:59;17.20;99.90
19809;DHT22;48538;32.784;-96.802;2023-11-19T09:51:26;17.20;99.90
19809;DHT22;48538;32.784;-96.802;2023-11-19T09:53:53;17.20;99.90
19809;DHT22;48538;32.784;-96.802;2023-11-19T09:56:20;17.20;99.90
19809;DHT22;48538;32.784;-96.802;2023-11-19T09:58:46;17.20;99.90
19809;DHT22;48538;32.784;-96.802;2023-11-19T10:01:12;17.10;99.90
19809;DHT22;48538;32.784;-96.802;2023-11-19T10:03:41;17.10;99.90
19809;DHT22;48538;32.784;-96.802;2023-11-19T10:06:10;17.20;99.90
19809;DHT22;48538;32.784;-96.802;2023-11-19T10:08:40;17.10;99.90
19809;DHT22;48538;32.784;-96.802;2023-11-19T10:11:07;17.10;99.90
19809;DHT22;48538;32.784;-96.802;2023-11-19T10:13:37;17.10;99.90
19809;DHT22;48538;32.784;-96.802;2023-11-19T10:16:09;17.10;99.90
19809;DHT22;48538;32.784;-96.802;2023-11-19T10:18:37;17.10;99.90
19809;DHT22;48538;32.784;-96.802;2023-11-19T10:21:05;17.10;99.90
19809;DHT22;48538;32.784;-96.802;2023-11-19T10:23:51;17.00;99.90
19809;DHT22;48538;32.784;-96.802;2023-11-19T10:26:18;17.00;99.90
19809;DHT22;48538;32.784;-96.802;2023-11-19T10:28:46;17.00;99.90
19809;DHT22;48538;32.784;-96.802;2023-11-19T10:31:14;16.90;99.90
19809;DHT22;48538;32.784;-96.802;2023-11-19T10:33:41;16.90;99.90
19809;DHT22;48538;32.784;-96.802;2023-11-19T10:36:08;16.80;99.90
19809;DHT22;48538;32.784;-96.802;2023-11-19T10:38:34;16.70;99.90
19809;DHT22;48538;32.784;-96.802;2023-11-19T10:41:00;16.70;99.90
19809;DHT22;48538;32.784;-96.802;2023-11-19T10:43:27;16.70;99.90
19809;DHT22;48538;32.784;-96.802;2023-11-19T10:45:53;16.60;99.90
19809;DHT22;48538;32.784;-96.802;2023-11-19T10:48:20;16.70;99.90
19809;DHT22;48538;32.784;-96.802;2023-11-19T10:50:53;16.60;99.90
19809;DHT22;48538;32.784;-96.802;2023-11-19T10:53:21;16.50;99.90
19809;DHT22;48538;32.784;-96.802;2023-11-19T10:55:49;16.60;99.90
19809;DHT22;48538;32.784;-96.802;2023-11-19T10:58:16;16.50;99.90
19809;DHT22;48538;32.784;-96.802;2023-11-19T11:00:51;16.50;99.90
19809;DHT22;48538;32.784;-96.802;2023-11-19T11:03:20;16.50;99.90
19809;DHT22;48538;32.784;-96.802;2023-11-19T11:05:51;16.60;99.90
19809;DHT22;48538;32.784;-96.802;2023-11-19T11:08:18;16.50;99.90
19809;DHT22;48538;32.784;-96.802;2023-11-19T11:10:52;16.60;99.90
19809;DHT22;48538;32.784;-96.802;2023-11-19T11:13:18;16.60;99.90
19809;DHT22;48538;32.784;-96.802;2023-11-19T11:15:45;16.50;99.90
19809;DHT22;48538;32.784;-96.802;2023-11-19T11:18:13;16.50;99.90
19809;DHT22;48538;32.784;-96.802;2023-11-19T11:20:40;16.50;99.90
19809;DHT22;48538;32.784;-96.802;2023-11-19T11:29:24;16.50;99.90
19809;DHT22;48538;32.784;-96.802;2023-11-19T11:35:03;16.40;99.90
19809;DHT22;48538;32.784;-96.802;2023-11-19T11:37:44;16.40;99.90
19809;DHT22;48538;32.784;-96.802;2023-11-19T11:40:17;16.50;99.90
19809;DHT22;48538;32.784;-96.802;2023-11-19T11:42:46;16.50;99.90
19809;DHT22;48538;32.784;-96.802;2023-11-19T11:45:14;16.50;99.90
19809;DHT22;48538;32.784;-96.802;2023-11-19T11:50:11;16.50;99.90
19809;DHT22;48538;32.784;-96.802;2023-11-19T11:55:26;16.50;99.90
19809;DHT22;48538;32.784;-96.802;2023-11-19T11:57:54;16.50;99.90
19809;DHT22;48538;32.784;-96.802;2023-11-19T12:02:50;16.50;99.90
19809;DHT22;48538;32.784;-96.802;2023-11-19T12:05:17;16.50;99.90
19809;DHT22;48538;32.784;-96.802;2023-11-19T12:08:00;16.60;99.90
19809;DHT22;48538;32.784;-96.802;2023-11-19T12:10:31;16.60;99.90
19809;DHT22;48538;32.784;-96.802;2023-11-19T12:13:01;16.60;99.90
19809;DHT22;48538;32.784;-96.802;2023-11-19T12:15:28;16.50;99.90
19809;DHT22;48538;32.784;-96.802;2023-11-19T12:17:55;16.60;99.90
19809;DHT22;48538;32.784;-96.802;2023-11-19T12:20:25;16.50;99.90
19809;DHT22;48538;32.784;-96.802;2023-11-19T12:22:53;16.50;99.90
19809;DHT22;48538;32.784;-96.802;2023-11-19T12:25:20;16.50;99.90
19809;DHT22;48538;32.784;-96.802;2023-11-19T12:27:49;16.50;99.90
19809;DHT22;48538;32.784;-96.802;2023-11-19T12:30:22;16.50;99.90
19809;DHT22;48538;32.784;-96.802;2023-11-19T12:32:50;16.50;99.90
19809;DHT22;48538;32.784;-96.802;2023-11-19T12:35:16;16.50;99.90
19809;DHT22;48538;32.784;-96.802;2023-11-19T12:37:44;16.50;99.90
19809;DHT22;48538;32.784;-96.802;2023-11-19T12:40:12;16.40;99.90
19809;DHT22;48538;32.784;-96.802;2023-11-19T12:42:39;16.30;99.90
19809;DHT22;48538;32.784;-96.802;2023-11-19T12:45:07;16.30;99.90
19809;DHT22;48538;32.784;-96.802;2023-11-19T12:47:40;16.20;99.90
19809;DHT22;48538;32.784;-96.802;2023-11-19T12:50:07;16.30;99.90
19809;DHT22;48538;32.784;-96.802;2023-11-19T12:52:35;16.20;99.90
19809;DHT22;48538;32.784;-96.802;2023-11-19T12:55:03;16.20;99.90
19809;DHT22;48538;32.784;-96.802;2023-11-19T12:57:40;16.20;99.90
19809;DHT22;48538;32.784;-96.802;2023-11-19T13:00:07;16.20;99.90
19809;DHT22;48538;32.784;-96.802;2023-11-19T13:02:51;16.10;99.90
19809;DHT22;48538;32.784;-96.802;2023-11-19T13:05:33;16.00;99.90
19809;DHT22;48538;32.784;-96.802;2023-11-19T13:08:00;15.90;99.90
19809;DHT22;48538;32.784;-96.802;2023-11-19T13:10:27;15.90;99.90
19809;DHT22;48538;32.784;-96.802;2023-11-19T13:13:07;15.90;99.90
19809;DHT22;48538;32.784;-96.802;2023-11-19T13:15:37;15.80;99.90
19809;DHT22;48538;32.784;-96.802;2023-11-19T13:18:04;15.70;99.90
19809;DHT22;48538;32.784;-96.802;2023-11-19T13:20:30;15.70;99.90
19809;DHT22;48538;32.784;-96.802;2023-11-19T13:23:01;15.60;99.90
19809;DHT22;48538;32.784;-96.802;2023-11-19T13:25:28;15.60;99.90
19809;DHT22;48538;32.784;-96.802;2023-11-19T13:27:55;15.50;99.90
19809;DHT22;48538;32.784;-96.802;2023-11-19T13:30:22;15.50;99.90
19809;DHT22;48538;32.784;-96.802;2023-11-19T13:32:49;15.50;99.90
19809;DHT22;48538;32.784;-96.802;2023-11-19T13:35:19;15.40;99.90
19809;DHT22;48538;32.784;-96.802;2023-11-19T13:37:45;15.40;99.90
19809;DHT22;48538;32.784;-96.802;2023-11-19T13:40:12;15.40;99.90
19809;DHT22;48538;32.784;-96.802;2023-11-19T13:42:41;15.40;99.90
19809;DHT22;48538;32.784;-96.802;2023-11-19T13:45:11;15.40;99.90
19809;DHT22;48538;32.784;-96.802;2023-11-19T13:47:41;15.40;99.90
19809;DHT22;48538;32.784;-96.802;2023-11-19T13:50:12;15.30;99.90
19809;DHT22;48538;32.784;-96.802;2023-11-19T13:52:41;15.20;99.90
19809;DHT22;48538;32.784;-96.802;2023-11-19T13:55:09;15.20;99.90
19809;DHT22;48538;32.784;-96.802;2023-11-19T13:57:42;15.20;99.90
19809;DHT22;48538;32.784;-96.802;2023-11-19T14:00:10;15.30;99.90
19809;DHT22;48538;32.784;-96.802;2023-11-19T14:02:42;15.30;99.90
19809;DHT22;48538;32.784;-96.802;2023-11-19T14:05:09;15.30;99.90
19809;DHT22;48538;32.784;-96.802;2023-11-19T14:07:37;15.30;99.90
19809;DHT22;48538;32.784;-96.802;2023-11-19T14:10:03;15.30;99.90
19809;DHT22;48538;32.784;-96.802;2023-11-19T14:12:32;15.30;99.90
19809;DHT22;48538;32.784;-96.802;2023-11-19T14:14:59;15.30;99.90
19809;DHT22;48538;32.784;-96.802;2023-11-19T14:17:26;15.30;99.90
19809;DHT22;48538;32.784;-96.802;2023-11-19T14:19:53;15.20;99.90
19809;DHT22;48538;32.784;-96.802;2023-11-19T14:22:19;15.30;99.90
19809;DHT22;48538;32.784;-96.802;2023-11-19T14:24:45;15.20;99.90
19809;DHT22;48538;32.784;-96.802;2023-11-19T14:27:11;15.20;99.90
19809;DHT22;48538;32.784;-96.802;2023-11-19T14:29:38;15.30;99.90
19809;DHT22;48538;32.784;-96.802;2023-11-19T14:32:05;15.40;99.90
19809;DHT22;48538;32.784;-96.802;2023-11-19T14:34:32;15.40;99.90
19809;DHT22;48538;32.784;-96.802;2023-11-19T14:36:59;15.30;99.90
19809;DHT22;48538;32.784;-96.802;2023-11-19T14:39:26;15.30;99.90
19809;DHT22;48538;32.784;-96.802;2023-11-19T14:41:53;15.30;99.90
19809;DHT22;48538;32.784;-96.802;2023-11-19T14:44:23;15.40;99.90
19809;DHT22;48538;32.784;-96.802;2023-11-19T14:46:50;15.50;99.90
19809;DHT22;48538;32.784;-96.802;2023-11-19T14:49:16;15.50;99.90
19809;DHT22;48538;32.784;-96.802;2023-11-19T14:51:42;15.60;99.90
19809;DHT22;48538;32.784;-96.802;2023-11-19T14:54:08;15.60;99.90
19809;DHT22;48538;32.784;-96.802;2023-11-19T14:56:35;15.70;99.90
19809;DHT22;48538;32.784;-96.802;2023-11-19T14:59:01;15.80;99.90
19809;DHT22;48538;32.784;-96.802;2023-11-19T15:01:27;15.80;99.90
19809;DHT22;48538;32.784;-96.802;2023-11-19T15:03:54;15.80;99.90
19809;DHT22;48538;32.784;-96.802;2023-11-19T15:06:24;15.80;99.90
19809;DHT22;48538;32.784;-96.802;2023-11-19T15:08:56;15.80;99.90
19809;DHT22;48538;32.784;-96.802;2023-11-19T15:11:23;15.90;99.90
19809;DHT22;48538;32.784;-96.802;2023-11-19T15:13:49;15.90;99.90
19809;DHT22;48538;32.784;-96.802;2023-11-19T15:16:15;16.00;99.90
19809;DHT22;48538;32.784;-96.802;2023-11-19T15:18:47;16.10;99.90
19809;DHT22;48538;32.784;-96.802;2023-11-19T15:21:14;16.20;99.90
19809;DHT22;48538;32.784;-96.802;2023-11-19T15:23:40;16.20;99.90